Time;durP1;ratioP1;P1;durP2;ratioP2;P2;SDS_P1;SDS_P2;PMS_P1;PMS_P2;Temp;Humidity;BMP_temperature;BMP_pressure;BME280_temperature;BME280_humidity;BME280_pressure;Samples;Min_cycle;Max_cycle;Signal;HPM_P1;HPM_P2
2022/05/04 00:01:43;;;;;;;15.20;2.47;;;12.60;99.90;;;;;;5005607;28;20603;-75
2022/05/04 00:04:10;;;;;;;6.50;2.50;;;12.60;99.90;;;;;;5011165;28;20818;-76
2022/05/04 00:06:37;;;;;;;4.87;3.60;;;12.40;99.90;;;;;;5012610;28;21025;-75
2022/05/04 00:09:04;;;;;;;4.73;2.53;;;12.40;99.90;;;;;;5005436;28;20429;-74
2022/05/04 00:11:31;;;;;;;7.57;3.17;;;12.40;99.90;;;;;;5011745;28;20495;-76
2022/05/04 00:13:59;;;;;;;4.53;4.13;;;12.30;99.90;;;;;;5018732;28;20511;-75
2022/05/04 00:16:26;;;;;;;3.80;1.90;;;12.20;99.90;;;;;;5014330;28;20522;-74
2022/05/04 00:18:53;;;;;;;3.23;2.40;;;12.20;99.90;;;;;;5015919;28;20521;-76
2022/05/04 00:21:20;;;;;;;7.97;3.43;;;12.20;99.90;;;;;;5026370;28;20949;-75
2022/05/04 00:23:46;;;;;;;3.10;2.27;;;12.20;99.90;;;;;;5017298;28;20538;-76
2022/05/04 00:26:13;;;;;;;3.50;2.40;;;11.90;99.90;;;;;;5017673;28;20562;-75
2022/05/04 00:28:40;;;;;;;3.00;2.50;;;11.90;99.90;;;;;;5019261;28;20432;-75
2022/05/04 00:31:08;;;;;;;5.47;2.57;;;11.90;99.90;;;;;;5013311;28;20443;-76
2022/05/04 00:33:34;;;;;;;3.27;2.23;;;11.90;99.90;;;;;;5020245;28;20481;-75
2022/05/04 00:36:01;;;;;;;3.37;2.70;;;11.90;99.90;;;;;;5019860;28;20480;-76
2022/05/04 00:38:28;;;;;;;5.70;2.87;;;11.90;99.90;;;;;;5021908;28;20435;-75
2022/05/04 00:40:54;;;;;;;3.63;2.83;;;12.00;99.90;;;;;;5021824;28;20497;-76
2022/05/04 00:43:23;;;;;;;2.60;2.40;;;11.90;99.90;;;;;;5019299;28;20830;-75
2022/05/04 00:45:50;;;;;;;3.30;2.57;;;11.80;99.90;;;;;;5009076;28;21018;-74
2022/05/04 00:48:18;;;;;;;3.30;2.23;;;11.80;99.90;;;;;;5014271;28;20461;-75
2022/05/04 00:50:45;;;;;;;5.57;3.20;;;11.80;99.90;;;;;;5018345;28;20435;-75
2022/05/04 00:53:13;;;;;;;3.07;2.70;;;11.70;99.90;;;;;;5018007;28;20460;-75
2022/05/04 00:55:40;;;;;;;9.43;5.10;;;11.60;99.90;;;;;;5025500;28;20596;-75
2022/05/04 01:01:00;;;;;;;5.03;3.27;;;11.40;99.90;;;;;;4990787;28;20470;-75
2022/05/04 01:03:28;;;;;;;3.40;2.83;;;11.50;99.90;;;;;;5011341;28;20914;-74
2022/05/04 01:05:54;;;;;;;5.13;3.40;;;11.50;99.90;;;;;;5015772;28;20463;-76
2022/05/04 01:08:21;;;;;;;6.23;3.70;;;11.50;99.90;;;;;;5017586;28;20463;-76
2022/05/04 01:10:48;;;;;;;2.93;2.37;;;11.40;99.90;;;;;;5017023;28;21147;-77
2022/05/04 01:13:19;;;;;;;6.90;2.40;;;11.40;99.90;;;;;;5016709;28;20459;-76
2022/05/04 01:15:46;;;;;;;4.90;3.00;;;11.40;99.90;;;;;;5006010;28;21018;-76
2022/05/04 01:18:12;;;;;;;4.37;2.80;;;11.40;99.90;;;;;;5014947;28;20466;-77
2022/05/04 01:20:40;;;;;;;5.20;3.00;;;11.40;99.90;;;;;;5015345;28;20841;-76
2022/05/04 01:23:08;;;;;;;3.50;2.93;;;11.40;99.90;;;;;;5019368;28;20452;-76
2022/05/04 01:25:35;;;;;;;3.90;3.20;;;11.30;99.90;;;;;;5015045;28;20454;-76
2022/05/04 01:28:02;;;;;;;10.17;3.37;;;11.30;99.90;;;;;;5012949;28;20443;-75
2022/05/04 01:30:30;;;;;;;3.97;3.13;;;11.30;99.90;;;;;;5010999;28;20463;-74
2022/05/04 01:32:56;;;;;;;4.50;2.50;;;11.10;99.90;;;;;;5004230;28;20884;-76
2022/05/04 01:35:23;;;;;;;8.07;3.17;;;10.80;99.90;;;;;;5003199;28;20643;-75
2022/05/04 01:37:50;;;;;;;5.33;2.77;;;10.90;99.90;;;;;;5017246;28;20789;-76
2022/05/04 01:40:18;;;;;;;4.17;2.70;;;11.00;99.90;;;;;;5009384;28;20523;-76
2022/05/04 01:42:45;;;;;;;6.33;4.53;;;11.00;99.90;;;;;;5006100;28;20446;-76
2022/05/04 01:45:12;;;;;;;3.87;2.50;;;11.00;99.90;;;;;;5011454;28;20964;-75
2022/05/04 01:47:39;;;;;;;8.13;3.37;;;11.00;99.90;;;;;;5010372;28;20508;-74
2022/05/04 01:50:07;;;;;;;3.73;3.17;;;11.00;99.90;;;;;;5015361;28;20468;-77
2022/05/04 01:52:33;;;;;;;6.90;4.40;;;11.00;99.90;;;;;;5013972;28;20457;-76
2022/05/04 01:55:00;;;;;;;6.40;3.27;;;10.90;99.90;;;;;;5015781;28;20459;-75
2022/05/04 01:57:29;;;;;;;7.40;3.30;;;10.90;99.90;;;;;;5010210;28;20434;-76
2022/05/04 01:59:55;;;;;;;3.50;2.80;;;10.90;99.90;;;;;;5013764;28;20453;-76
2022/05/04 02:02:22;;;;;;;5.60;3.40;;;10.80;99.90;;;;;;5012764;28;20464;-76
2022/05/04 02:04:50;;;;;;;6.43;2.47;;;10.80;99.90;;;;;;5019662;28;20480;-76
2022/05/04 02:07:17;;;;;;;5.43;3.03;;;10.70;99.90;;;;;;5015708;28;20444;-76
2022/05/04 02:09:44;;;;;;;9.53;3.13;;;10.60;99.90;;;;;;5019519;28;20563;-76
2022/05/04 02:12:11;;;;;;;7.63;4.07;;;10.70;99.90;;;;;;5021074;28;20435;-76
2022/05/04 02:14:39;;;;;;;4.63;3.47;;;10.60;99.90;;;;;;5012148;28;20533;-74
2022/05/04 02:17:06;;;;;;;5.70;3.40;;;10.70;99.90;;;;;;5016065;28;20460;-75
2022/05/04 02:19:33;;;;;;;3.40;2.40;;;10.60;99.90;;;;;;5010481;28;20443;-74
2022/05/04 02:22:00;;;;;;;6.77;3.17;;;10.60;99.90;;;;;;5018491;28;20948;-75
2022/05/04 02:24:26;;;;;;;8.97;4.37;;;10.60;99.90;;;;;;5017621;28;20469;-76
2022/05/04 02:26:53;;;;;;;10.30;3.53;;;10.50;99.90;;;;;;5011507;28;20505;-74
2022/05/04 02:29:20;;;;;;;3.33;3.03;;;10.40;99.90;;;;;;5015857;28;20435;-76
2022/05/04 02:31:48;;;;;;;10.17;3.67;;;10.40;99.90;;;;;;5008672;28;20955;-74
2022/05/04 02:34:14;;;;;;;3.50;3.10;;;10.40;99.90;;;;;;5012389;28;20473;-74
2022/05/04 02:39:25;;;;;;;8.43;3.30;;;10.30;99.90;;;;;;5016233;28;20923;-74
2022/05/04 02:41:52;;;;;;;12.17;5.00;;;10.20;99.90;;;;;;5017094;28;20458;-76
2022/05/04 02:44:18;;;;;;;5.23;3.23;;;10.30;99.90;;;;;;5011809;28;21191;-75
2022/05/04 02:46:49;;;;;;;4.40;2.80;;;10.20;99.90;;;;;;5008353;28;20450;-74
2022/05/04 02:49:16;;;;;;;4.33;2.57;;;10.20;99.90;;;;;;5002598;28;21105;-76
2022/05/04 02:51:43;;;;;;;4.50;2.77;;;10.00;99.90;;;;;;5006727;28;20469;-76
2022/05/04 02:54:09;;;;;;;5.60;3.20;;;10.10;99.90;;;;;;5015574;28;20502;-76
2022/05/04 02:56:36;;;;;;;4.67;3.47;;;10.10;99.90;;;;;;5008670;28;20935;-76
2022/05/04 02:59:03;;;;;;;5.57;4.07;;;10.20;99.90;;;;;;5004981;28;20472;-74
2022/05/04 03:04:21;;;;;;;9.33;3.50;;;10.10;99.90;;;;;;5014338;28;20666;-76
2022/05/04 03:06:48;;;;;;;4.73;3.10;;;10.10;99.90;;;;;;5010352;28;21015;-75
2022/05/04 03:09:14;;;;;;;6.00;3.03;;;10.10;99.90;;;;;;5021183;28;20496;-76
2022/05/04 03:11:56;;;;;;;8.50;3.13;;;10.10;99.90;;;;;;5017561;28;20460;-76
2022/05/04 03:14:24;;;;;;;4.70;3.10;;;10.00;99.90;;;;;;5018597;28;20990;-74
2022/05/04 03:16:51;;;;;;;5.57;2.73;;;9.90;99.90;;;;;;5009930;28;20465;-75
2022/05/04 03:19:20;;;;;;;6.27;3.47;;;9.90;99.90;;;;;;5014337;28;20547;-74
2022/05/04 03:21:48;;;;;;;7.70;3.57;;;9.60;99.90;;;;;;5015871;28;20550;-76
2022/05/04 03:24:15;;;;;;;6.07;2.97;;;9.50;99.90;;;;;;5018549;28;20499;-77
2022/05/04 03:26:43;;;;;;;5.50;2.73;;;9.60;99.90;;;;;;5010830;28;20448;-75
2022/05/04 03:29:10;;;;;;;3.87;3.33;;;9.70;99.90;;;;;;5014345;28;20436;-75
2022/05/04 03:31:37;;;;;;;5.47;3.17;;;9.60;99.90;;;;;;5015797;28;21020;-75
2022/05/04 03:34:04;;;;;;;9.70;3.33;;;9.60;99.90;;;;;;5016907;28;20662;-76
2022/05/04 03:36:35;;;;;;;4.20;3.47;;;9.60;99.90;;;;;;5012717;28;20808;-75
2022/05/04 03:39:02;;;;;;;7.37;2.70;;;9.50;99.90;;;;;;5011902;28;20582;-75
2022/05/04 03:41:29;;;;;;;14.17;4.43;;;9.50;99.90;;;;;;5012796;28;20949;-75
2022/05/04 03:43:55;;;;;;;6.40;4.70;;;9.30;99.90;;;;;;5012199;28;20493;-76
2022/05/04 03:46:24;;;;;;;5.03;3.40;;;9.40;99.90;;;;;;5014424;28;20959;-75
2022/05/04 03:48:52;;;;;;;4.60;2.47;;;9.40;99.90;;;;;;4999762;28;20461;-75
2022/05/04 03:51:20;;;;;;;5.70;3.70;;;9.40;99.90;;;;;;5002366;28;20439;-75
2022/05/04 03:53:49;;;;;;;6.10;3.87;;;9.50;99.90;;;;;;5008223;28;20525;-76
2022/05/04 03:56:16;;;;;;;16.27;3.60;;;9.50;99.90;;;;;;5014125;28;20537;-74
2022/05/04 03:58:43;;;;;;;5.10;2.93;;;9.60;99.90;;;;;;5013099;28;20551;-74
2022/05/04 04:01:11;;;;;;;8.57;4.07;;;9.70;99.90;;;;;;4998519;28;20490;-76
2022/05/04 04:03:38;;;;;;;6.17;3.30;;;9.70;99.90;;;;;;5006580;28;21285;-76
2022/05/04 04:06:08;;;;;;;5.37;2.90;;;9.80;99.90;;;;;;5010369;28;20475;-73
2022/05/04 04:08:34;;;;;;;5.70;2.97;;;9.90;99.90;;;;;;5006936;28;20665;-76
2022/05/04 04:11:03;;;;;;;5.40;3.50;;;9.90;99.90;;;;;;5001490;28;20443;-75
2022/05/04 04:13:30;;;;;;;5.93;2.90;;;9.90;99.90;;;;;;5010957;28;20436;-75
2022/05/04 04:15:57;;;;;;;7.30;3.07;;;10.00;99.90;;;;;;4985764;22;1013408;-75
2022/05/04 04:18:25;;;;;;;22.90;10.07;;;9.80;99.90;;;;;;5010158;28;20230;-73
2022/05/04 04:23:37;;;;;;;4.50;2.63;;;9.90;99.90;;;;;;5002119;28;20559;-76
2022/05/04 04:26:06;;;;;;;5.43;3.40;;;9.60;99.90;;;;;;4986437;28;20506;-74
2022/05/04 04:28:33;;;;;;;12.60;3.90;;;9.50;99.90;;;;;;4999378;28;20461;-72
2022/05/04 04:31:00;;;;;;;5.53;3.17;;;9.60;99.90;;;;;;4984309;28;20551;-73
2022/05/04 04:33:27;;;;;;;4.70;3.20;;;9.50;99.90;;;;;;4982018;28;20473;-73
2022/05/04 04:35:54;;;;;;;10.20;5.17;;;9.50;99.90;;;;;;4972260;28;20445;-73
2022/05/04 04:38:21;;;;;;;5.10;3.17;;;9.50;99.90;;;;;;4981682;28;20540;-74
2022/05/04 04:40:48;;;;;;;8.93;3.83;;;9.60;99.90;;;;;;4993824;28;20462;-77
2022/05/04 04:43:16;;;;;;;6.77;4.57;;;9.70;99.90;;;;;;4987350;28;20465;-73
2022/05/04 04:45:44;;;;;;;12.00;4.00;;;9.80;99.90;;;;;;4981071;28;20580;-75
2022/05/04 04:48:11;;;;;;;11.97;3.87;;;9.90;99.90;;;;;;4986533;28;20879;-72
2022/05/04 04:50:38;;;;;;;6.93;3.20;;;9.90;99.90;;;;;;4992051;28;20517;-74
2022/05/04 04:53:05;;;;;;;7.33;3.70;;;10.00;99.90;;;;;;4988277;28;20440;-75
2022/05/04 04:55:32;;;;;;;6.03;3.67;;;9.90;99.90;;;;;;4983777;28;20449;-73
2022/05/04 04:57:58;;;;;;;11.00;3.60;;;9.90;99.90;;;;;;4981562;28;20472;-73
2022/05/04 05:00:27;;;;;;;11.47;4.47;;;10.10;99.90;;;;;;4983466;28;20490;-76
2022/05/04 05:02:54;;;;;;;6.67;3.33;;;9.90;99.90;;;;;;4979109;28;20439;-74
2022/05/04 05:05:21;;;;;;;9.80;3.40;;;10.10;99.90;;;;;;4981512;28;20507;-75
2022/05/04 05:07:47;;;;;;;6.13;2.97;;;10.30;99.90;;;;;;4983346;28;21052;-72
2022/05/04 05:10:14;;;;;;;4.30;3.60;;;10.20;99.90;;;;;;4982060;28;21013;-75
2022/05/04 05:12:42;;;;;;;4.03;2.27;;;10.10;99.90;;;;;;4983768;28;20559;-72
2022/05/04 05:17:51;;;;;;;8.73;3.53;;;10.40;99.90;;;;;;4971381;28;20612;-73
2022/05/04 05:20:18;;;;;;;5.53;3.23;;;10.50;99.90;;;;;;4996870;28;20518;-73
2022/05/04 05:22:45;;;;;;;9.10;4.80;;;10.60;99.90;;;;;;4994357;28;20664;-77
2022/05/04 05:25:12;;;;;;;6.03;3.40;;;10.70;99.90;;;;;;4981377;28;20477;-75
2022/05/04 05:27:38;;;;;;;8.10;3.93;;;10.50;99.90;;;;;;4992549;28;20768;-74
2022/05/04 05:30:06;;;;;;;5.73;2.93;;;10.70;99.90;;;;;;4993452;28;20519;-73
2022/05/04 05:32:33;;;;;;;5.70;4.60;;;10.80;99.90;;;;;;4996549;28;20867;-75
2022/05/04 05:35:02;;;;;;;6.60;3.60;;;11.10;99.90;;;;;;4998118;28;20817;-73
2022/05/04 05:37:29;;;;;;;2.67;2.30;;;11.30;99.90;;;;;;5000206;28;20542;-76
2022/05/04 05:39:56;;;;;;;5.23;3.40;;;11.50;99.90;;;;;;5000617;28;21114;-75
2022/05/04 05:42:22;;;;;;;20.90;3.90;;;11.20;99.90;;;;;;5002435;28;20439;-73
2022/05/04 05:44:49;;;;;;;4.50;3.17;;;11.30;99.90;;;;;;4994967;28;20558;-73
2022/05/04 05:47:16;;;;;;;4.23;2.60;;;11.20;99.90;;;;;;5002213;28;20489;-75
2022/05/04 05:49:43;;;;;;;6.67;4.13;;;11.40;99.90;;;;;;5003603;28;20537;-73
2022/05/04 05:52:11;;;;;;;5.10;3.10;;;11.40;99.90;;;;;;4998445;28;20466;-76
2022/05/04 05:54:38;;;;;;;7.53;3.90;;;11.40;99.90;;;;;;4999556;28;20491;-73
2022/05/04 05:57:06;;;;;;;6.40;3.30;;;11.60;99.90;;;;;;4994727;28;20591;-73
2022/05/04 05:59:33;;;;;;;7.83;3.33;;;11.60;99.90;;;;;;4996143;28;20837;-74
2022/05/04 06:02:00;;;;;;;8.60;3.30;;;11.80;99.90;;;;;;4996130;28;20887;-74
2022/05/04 06:04:27;;;;;;;11.80;3.00;;;11.90;99.90;;;;;;4998812;28;20498;-74
2022/05/04 06:06:54;;;;;;;7.17;3.10;;;11.80;99.90;;;;;;4997877;28;20621;-73
2022/05/04 06:09:22;;;;;;;7.63;3.70;;;12.20;99.90;;;;;;4990168;28;20558;-73
2022/05/04 06:11:48;;;;;;;4.77;3.30;;;12.30;99.90;;;;;;4996305;28;20952;-74
2022/05/04 06:14:15;;;;;;;14.77;4.00;;;12.60;99.90;;;;;;4990389;28;20486;-73
2022/05/04 06:16:42;;;;;;;11.00;2.93;;;12.80;99.90;;;;;;4991649;28;20504;-74
2022/05/04 06:19:09;;;;;;;3.73;2.77;;;12.90;99.90;;;;;;4993903;28;20545;-74
2022/05/04 06:21:36;;;;;;;23.20;10.43;;;13.50;99.90;;;;;;4990760;28;20464;-74
2022/05/04 06:24:03;;;;;;;5.47;3.50;;;13.90;99.90;;;;;;4987853;28;20966;-73
2022/05/04 06:26:31;;;;;;;11.70;3.63;;;14.10;99.90;;;;;;4998689;28;20485;-77
2022/05/04 06:28:58;;;;;;;7.40;3.40;;;14.20;99.90;;;;;;4989989;28;20465;-73
2022/05/04 06:34:10;;;;;;;4.63;3.20;;;14.40;99.90;;;;;;4996206;28;20476;-72
2022/05/04 06:36:39;;;;;;;8.73;4.03;;;14.50;99.90;;;;;;4994352;28;20853;-72
2022/05/04 06:39:06;;;;;;;5.10;4.07;;;14.00;99.90;;;;;;4989358;28;20516;-75
2022/05/04 06:41:34;;;;;;;5.03;3.57;;;14.20;99.90;;;;;;4986951;28;21355;-76
2022/05/04 06:44:01;;;;;;;6.63;3.90;;;14.30;99.90;;;;;;4984916;28;20516;-75
2022/05/04 06:46:28;;;;;;;8.20;3.73;;;14.50;99.90;;;;;;4984147;28;20508;-74
2022/05/04 06:48:54;;;;;;;7.70;3.33;;;14.90;99.90;;;;;;4992401;28;20457;-72
2022/05/04 06:51:21;;;;;;;10.30;5.10;;;14.50;99.90;;;;;;4993079;28;20462;-73
2022/05/04 06:53:48;;;;;;;5.90;3.27;;;14.60;99.90;;;;;;4985689;28;20457;-70
2022/05/04 06:56:14;;;;;;;4.53;3.73;;;15.20;99.90;;;;;;4993030;28;20473;-71
2022/05/04 06:58:43;;;;;;;6.70;4.20;;;15.10;99.90;;;;;;4995672;28;20531;-70
2022/05/04 07:01:10;;;;;;;5.77;4.23;;;15.40;99.90;;;;;;4981342;28;20465;-71
2022/05/04 07:03:38;;;;;;;5.13;4.03;;;15.80;99.90;;;;;;4984213;28;20462;-70
2022/05/04 07:06:05;;;;;;;5.37;3.40;;;16.10;99.90;;;;;;4989505;28;20600;-71
2022/05/04 07:08:32;;;;;;;6.03;3.50;;;16.00;99.90;;;;;;4990152;28;20470;-70
2022/05/04 07:10:58;;;;;;;6.13;3.73;;;15.80;99.90;;;;;;4990804;28;20466;-69
2022/05/04 07:13:25;;;;;;;8.53;3.70;;;15.50;99.90;;;;;;4995827;28;20521;-70
2022/05/04 07:15:55;;;;;;;6.07;4.07;;;15.60;99.90;;;;;;4996573;28;21117;-70
2022/05/04 07:18:24;;;;;;;9.93;4.17;;;15.80;99.90;;;;;;4985848;28;20489;-70
2022/05/04 07:20:52;;;;;;;9.10;6.20;;;16.40;99.90;;;;;;4984249;28;20459;-69
2022/05/04 07:23:18;;;;;;;12.13;4.97;;;16.50;99.90;;;;;;4984423;28;20539;-71
2022/05/04 07:25:45;;;;;;;10.00;5.17;;;17.00;99.90;;;;;;4984242;28;20501;-70
2022/05/04 07:28:12;;;;;;;9.47;3.97;;;17.30;99.90;;;;;;4977808;28;21437;-69
2022/05/04 07:30:39;;;;;;;7.50;3.80;;;17.80;99.90;;;;;;4987848;28;20490;-68
2022/05/04 07:33:07;;;;;;;12.63;5.40;;;18.20;99.90;;;;;;4987937;28;20465;-71
2022/05/04 07:35:33;;;;;;;6.73;3.70;;;17.80;99.90;;;;;;4987364;28;20513;-69
2022/05/04 07:38:00;;;;;;;12.83;5.23;;;18.30;99.90;;;;;;4994108;28;20459;-70
2022/05/04 07:43:19;;;;;;;7.67;4.47;;;17.80;99.90;;;;;;4953773;28;20974;-70
2022/05/04 07:45:47;;;;;;;9.60;4.47;;;17.50;99.90;;;;;;4984789;28;20549;-70
2022/05/04 07:48:16;;;;;;;16.07;5.70;;;18.00;99.90;;;;;;4982336;28;20460;-71
2022/05/04 07:50:42;;;;;;;11.00;5.57;;;18.30;99.90;;;;;;4993050;28;21096;-70
2022/05/04 07:53:09;;;;;;;7.43;4.87;;;18.70;99.90;;;;;;4989071;28;20458;-71
2022/05/04 07:55:37;;;;;;;9.20;5.00;;;18.80;99.90;;;;;;4986938;28;20454;-71
2022/05/04 07:58:03;;;;;;;12.73;5.00;;;19.10;99.90;;;;;;4981277;28;20483;-72
2022/05/04 08:06:04;;;;;;;9.23;4.50;;;19.50;99.90;;;;;;4994028;28;20487;-71
2022/05/04 08:08:30;;;;;;;11.47;4.63;;;19.80;99.90;;;;;;4996763;28;20576;-70
2022/05/04 08:11:05;;;;;;;11.43;6.00;;;20.00;99.90;;;;;;4990434;28;20486;-71
2022/05/04 08:13:32;;;;;;;15.00;5.10;;;20.30;99.90;;;;;;4979401;28;20465;-72
2022/05/04 08:15:59;;;;;;;12.37;5.50;;;20.20;99.90;;;;;;4984012;28;20493;-70
2022/05/04 08:18:27;;;;;;;10.13;5.37;;;20.40;99.90;;;;;;4984368;28;20469;-70
2022/05/04 08:20:54;;;;;;;7.30;3.90;;;20.30;99.90;;;;;;4994995;28;20530;-71
2022/05/04 08:23:23;;;;;;;7.77;4.40;;;21.00;99.90;;;;;;4978397;28;21164;-71
2022/05/04 08:25:50;;;;;;;7.90;7.20;;;21.40;99.90;;;;;;4988892;28;20491;-71
2022/05/04 08:28:23;;;;;;;10.30;5.57;;;21.50;99.50;;;;;;4992953;28;20472;-71
2022/05/04 08:30:50;;;;;;;10.00;5.50;;;21.10;99.10;;;;;;4986347;28;20529;-71
2022/05/04 08:33:18;;;;;;;10.13;4.80;;;20.90;99.90;;;;;;4977392;28;20565;-69
2022/05/04 08:35:46;;;;;;;9.27;4.40;;;21.10;99.10;;;;;;4990930;28;20498;-70
2022/05/04 08:38:13;;;;;;;12.13;5.90;;;21.20;99.20;;;;;;4984742;28;20469;-70
2022/05/04 08:40:40;;;;;;;10.03;5.23;;;21.40;99.20;;;;;;4993738;28;20489;-69
2022/05/04 08:43:07;;;;;;;10.27;4.90;;;22.00;98.90;;;;;;4992748;28;20525;-69
2022/05/04 08:45:37;;;;;;;15.90;5.17;;;22.20;98.10;;;;;;4987083;28;28330;-69
2022/05/04 08:48:05;;;;;;;8.07;5.70;;;21.80;97.30;;;;;;4987360;28;20455;-69
2022/05/04 08:50:34;;;;;;;12.73;6.10;;;21.40;97.20;;;;;;4986668;28;20529;-69
2022/05/04 08:53:03;;;;;;;7.30;5.10;;;21.90;97.10;;;;;;4993936;28;20490;-70
2022/05/04 08:55:30;;;;;;;10.20;5.30;;;21.10;97.10;;;;;;4996364;28;20459;-69
2022/05/04 08:57:57;;;;;;;8.70;6.10;;;21.90;96.90;;;;;;4987714;28;20526;-70
2022/05/04 09:00:24;;;;;;;7.40;4.97;;;22.40;95.40;;;;;;4993732;28;22580;-69
2022/05/04 09:02:51;;;;;;;9.50;5.37;;;22.80;95.10;;;;;;4977214;28;20466;-69
2022/05/04 09:05:20;;;;;;;10.33;5.60;;;22.70;94.60;;;;;;4978100;28;20475;-70
2022/05/04 09:07:48;;;;;;;8.13;5.77;;;22.90;96.10;;;;;;4977136;28;21240;-71
2022/05/04 09:10:18;;;;;;;7.33;4.97;;;23.10;95.50;;;;;;4989167;28;20458;-70
2022/05/04 09:12:46;;;;;;;13.27;6.80;;;23.70;93.00;;;;;;4993086;28;20466;-70
2022/05/04 09:15:20;;;;;;;8.93;5.77;;;23.00;92.70;;;;;;4997661;28;20474;-69
2022/05/04 09:17:48;;;;;;;9.90;6.33;;;23.00;94.80;;;;;;4980522;28;20478;-69
2022/05/04 09:23:00;;;;;;;8.47;6.20;;;23.10;93.30;;;;;;4982665;28;20459;-71
2022/05/04 09:25:28;;;;;;;16.30;5.90;;;23.70;92.30;;;;;;4985771;28;20509;-70
2022/05/04 09:27:56;;;;;;;13.90;5.03;;;24.00;92.60;;;;;;4991407;28;20463;-71
2022/05/04 09:30:26;;;;;;;13.47;6.90;;;23.80;90.80;;;;;;4989150;28;20475;-70
2022/05/04 09:32:53;;;;;;;11.50;7.80;;;24.30;90.80;;;;;;4989118;28;21251;-70
2022/05/04 09:35:20;;;;;;;19.57;6.87;;;24.50;90.10;;;;;;4992771;28;20522;-70
2022/05/04 09:46:33;;;;;;;16.63;7.73;;;24.00;91.10;;;;;;4988334;28;20506;-71
2022/05/04 09:49:09;;;;;;;14.33;7.93;;;25.20;87.10;;;;;;4989911;28;20454;-71
2022/05/04 09:51:37;;;;;;;14.07;7.43;;;25.40;85.80;;;;;;4978827;28;20478;-70
2022/05/04 09:54:13;;;;;;;14.10;7.20;;;25.30;84.40;;;;;;4987938;28;20476;-71
2022/05/04 09:56:42;;;;;;;9.90;6.47;;;26.00;81.50;;;;;;4979401;28;21077;-71
2022/05/04 09:59:09;;;;;;;10.93;6.80;;;25.40;86.20;;;;;;4991624;28;20467;-71
2022/05/04 10:01:37;;;;;;;7.90;6.53;;;25.20;82.80;;;;;;4986598;28;20992;-70
2022/05/04 10:04:05;;;;;;;7.23;6.33;;;25.00;82.80;;;;;;4973874;28;20466;-70
2022/05/04 10:06:32;;;;;;;10.10;6.80;;;25.50;83.50;;;;;;4985058;28;21087;-71
2022/05/04 10:08:59;;;;;;;9.20;5.43;;;24.70;79.60;;;;;;4984967;28;20466;-70
2022/05/04 10:11:26;;;;;;;11.07;6.43;;;23.60;83.70;;;;;;4974025;28;20460;-70
2022/05/04 10:14:01;;;;;;;10.33;7.50;;;22.50;85.20;;;;;;4982198;28;20512;-71
2022/05/04 10:16:29;;;;;;;8.57;7.10;;;22.00;89.20;;;;;;4988540;28;20552;-70
2022/05/04 10:18:58;;;;;;;16.23;7.20;;;22.30;89.30;;;;;;4987949;28;20829;-70
2022/05/04 10:21:25;;;;;;;14.90;7.47;;;22.20;87.90;;;;;;4992611;28;20466;-71
2022/05/04 10:24:00;;;;;;;12.17;7.47;;;22.00;87.20;;;;;;5004053;28;20474;-69
2022/05/04 10:26:33;;;;;;;10.17;6.70;;;21.70;88.60;;;;;;4983333;28;20494;-69
2022/05/04 10:31:53;;;;;;;10.77;7.60;;;21.90;90.10;;;;;;4997023;28;20508;-71
2022/05/04 10:34:20;;;;;;;7.73;6.23;;;21.50;90.70;;;;;;5000696;28;20829;-70
2022/05/04 10:36:48;;;;;;;13.87;8.23;;;21.40;91.00;;;;;;4997763;28;20544;-70
2022/05/04 10:39:20;;;;;;;9.63;5.50;;;21.20;90.40;;;;;;4992294;28;20471;-71
2022/05/04 10:41:47;;;;;;;11.50;8.23;;;21.90;93.00;;;;;;4994724;28;20497;-71
2022/05/04 10:44:17;;;;;;;12.23;7.97;;;23.60;90.90;;;;;;4996045;28;20463;-69
2022/05/04 10:46:47;;;;;;;10.80;6.60;;;23.90;88.50;;;;;;4980482;28;20493;-70
2022/05/04 10:49:16;;;;;;;11.50;6.60;;;24.00;87.50;;;;;;4983509;28;20470;-70
2022/05/04 10:51:44;;;;;;;13.13;6.43;;;22.70;87.30;;;;;;4977759;28;21051;-70
2022/05/04 10:54:15;;;;;;;12.97;7.00;;;22.50;89.00;;;;;;4968807;28;20561;-68
2022/05/04 10:56:43;;;;;;;11.40;7.63;;;22.40;90.00;;;;;;4962254;28;20486;-70
2022/05/04 10:59:11;;;;;;;12.00;6.73;;;22.90;88.10;;;;;;4977188;28;20471;-70
2022/05/04 11:01:40;;;;;;;12.17;6.67;;;23.70;88.90;;;;;;4962924;28;20966;-71
2022/05/04 11:04:22;;;;;;;13.37;8.17;;;23.80;85.00;;;;;;5000372;28;20717;-71
2022/05/04 11:06:57;;;;;;;15.00;7.07;;;23.10;87.20;;;;;;4997546;28;20486;-70
2022/05/04 11:09:25;;;;;;;9.17;6.43;;;22.40;89.60;;;;;;4998708;28;20463;-70
2022/05/04 11:11:53;;;;;;;8.80;5.63;;;22.30;88.10;;;;;;5001896;28;20517;-70
2022/05/04 11:14:22;;;;;;;9.77;7.00;;;22.10;89.50;;;;;;4996304;28;20500;-70
2022/05/04 11:16:52;;;;;;;11.60;7.03;;;21.70;89.50;;;;;;4990738;28;20495;-71
2022/05/04 11:19:19;;;;;;;16.43;7.70;;;21.70;90.00;;;;;;4990337;28;20517;-69
2022/05/04 11:21:46;;;;;;;9.73;6.60;;;21.60;90.90;;;;;;5009322;22;20517;-75
2022/05/04 11:24:16;;;;;;;17.93;7.27;;;21.20;91.30;;;;;;4997009;28;20461;-75
2022/05/04 11:26:44;;;;;;;12.00;7.67;;;21.20;91.40;;;;;;4998334;28;21203;-75
2022/05/04 11:29:14;;;;;;;7.57;6.77;;;21.10;91.70;;;;;;4996295;28;20450;-75
2022/05/04 11:31:46;;;;;;;9.90;7.60;;;21.40;91.30;;;;;;4983810;28;20490;-75
2022/05/04 11:34:16;;;;;;;13.93;7.30;;;21.70;91.10;;;;;;4993895;28;20461;-75
2022/05/04 11:36:45;;;;;;;10.87;7.27;;;21.10;91.30;;;;;;4991053;28;20565;-74
2022/05/04 11:39:14;;;;;;;12.63;8.40;;;22.10;93.10;;;;;;4992182;28;20531;-74
2022/05/04 11:41:44;;;;;;;12.23;8.90;;;22.60;89.00;;;;;;4992533;28;20482;-74
2022/05/04 11:44:11;;;;;;;13.97;9.20;;;22.20;88.10;;;;;;4989428;28;20467;-74
2022/05/04 11:46:38;;;;;;;13.50;8.90;;;22.90;87.00;;;;;;4978948;28;20632;-74
2022/05/04 11:49:09;;;;;;;13.57;9.00;;;23.90;91.20;;;;;;4985213;28;20561;-75
2022/05/04 11:51:37;;;;;;;12.00;8.73;;;25.10;85.30;;;;;;4990785;28;20487;-74
2022/05/04 11:54:05;;;;;;;12.13;8.60;;;26.10;82.70;;;;;;4994361;28;20526;-75
2022/05/04 11:56:33;;;;;;;10.13;9.00;;;26.30;80.80;;;;;;4983280;28;20893;-75
2022/05/04 11:59:00;;;;;;;18.40;10.30;;;26.90;77.00;;;;;;4986791;28;20866;-74
2022/05/04 12:01:27;;;;;;;14.60;9.07;;;26.30;74.10;;;;;;4983029;28;20562;-75
2022/05/04 12:03:54;;;;;;;14.20;8.30;;;25.10;76.20;;;;;;4984750;28;21496;-76
2022/05/04 12:06:21;;;;;;;12.20;9.63;;;24.40;79.70;;;;;;4992671;28;20522;-75
2022/05/04 12:08:50;;;;;;;16.50;10.00;;;25.70;78.00;;;;;;4990334;28;20456;-75
2022/05/04 12:11:18;;;;;;;13.40;11.10;;;25.90;73.00;;;;;;4992044;28;20557;-75
2022/05/04 12:13:46;;;;;;;14.53;11.77;;;26.00;70.10;;;;;;4988099;28;20518;-75
2022/05/04 12:16:13;;;;;;;14.43;10.60;;;25.30;71.00;;;;;;4991879;28;20459;-75
2022/05/04 12:18:40;;;;;;;17.23;10.47;;;24.50;74.70;;;;;;4986670;28;21132;-74
2022/05/04 12:21:08;;;;;;;15.60;8.90;;;24.30;75.80;;;;;;4991219;28;20494;-75
2022/05/04 12:23:36;;;;;;;13.83;8.10;;;24.80;78.30;;;;;;4983512;28;22405;-73
2022/05/04 12:26:05;;;;;;;11.97;8.30;;;24.50;76.70;;;;;;4990243;28;20469;-73
2022/05/04 12:28:32;;;;;;;14.80;10.30;;;23.70;77.60;;;;;;4988686;28;20486;-74
2022/05/04 12:33:44;;;;;;;13.17;9.47;;;26.00;76.00;;;;;;4995900;28;20462;-75
2022/05/04 12:36:12;;;;;;;11.17;9.10;;;27.80;70.70;;;;;;4999135;28;20466;-75
2022/05/04 12:38:45;;;;;;;16.73;9.47;;;27.50;67.00;;;;;;4995135;28;20451;-75
2022/05/04 12:41:17;;;;;;;12.73;10.33;;;26.10;68.60;;;;;;4994013;28;20578;-75
2022/05/04 12:43:43;;;;;;;20.60;10.00;;;25.80;69.60;;;;;;4996195;28;20471;-75
2022/05/04 12:46:12;;;;;;;12.90;9.97;;;26.50;67.30;;;;;;4984736;28;20517;-75
2022/05/04 12:48:41;;;;;;;12.93;9.30;;;26.50;67.30;;;;;;4998098;28;20484;-74
2022/05/04 12:51:08;;;;;;;8.70;7.80;;;26.40;69.20;;;;;;4996753;28;20480;-74
2022/05/04 12:53:38;;;;;;;8.63;6.03;;;25.60;68.70;;;;;;4997705;28;20467;-75
2022/05/04 12:58:51;;;;;;;9.27;8.37;;;25.60;67.70;;;;;;4997553;28;20479;-75
2022/05/04 13:01:22;;;;;;;11.63;9.10;;;25.20;66.30;;;;;;4987424;28;20501;-75
2022/05/04 13:03:50;;;;;;;13.40;8.27;;;25.30;66.30;;;;;;4983621;28;21388;-75
2022/05/04 13:06:17;;;;;;;8.57;6.90;;;25.80;64.10;;;;;;4989142;28;20478;-74
2022/05/04 13:08:43;;;;;;;9.77;7.93;;;25.60;64.80;;;;;;4984698;28;20491;-74
2022/05/04 13:11:10;;;;;;;14.10;7.13;;;24.60;66.40;;;;;;4987188;28;20547;-75
2022/05/04 13:13:36;;;;;;;10.37;6.30;;;24.30;68.20;;;;;;4986890;28;20677;-74
2022/05/04 13:16:05;;;;;;;8.90;6.80;;;25.60;65.20;;;;;;4986455;28;20467;-75
2022/05/04 13:18:31;;;;;;;11.23;8.27;;;25.80;61.70;;;;;;4997865;28;20464;-74
2022/05/04 13:20:58;;;;;;;14.70;7.80;;;26.20;63.50;;;;;;4991070;28;20488;-73
2022/05/04 13:23:25;;;;;;;8.13;7.33;;;26.20;61.20;;;;;;4992305;28;20549;-74
2022/05/04 13:25:52;;;;;;;10.20;8.33;;;25.60;62.40;;;;;;4990979;28;20462;-72
2022/05/04 13:28:18;;;;;;;10.20;7.33;;;25.40;63.60;;;;;;4990764;28;20482;-74
2022/05/04 13:30:45;;;;;;;11.63;8.63;;;24.70;64.90;;;;;;4991997;28;20496;-73